Time;durP1;ratioP1;P1;durP2;ratioP2;P2;SDS_P1;SDS_P2;PMS_P1;PMS_P2;Temp;Humidity;BMP_temperature;BMP_pressure;BME280_temperature;BME280_humidity;BME280_pressure;Samples;Min_cycle;Max_cycle;Signal;HPM_P1;HPM_P2
2022/08/28 00:01:39;;;;;;;20.40;14.27;;;17.90;99.90;;;;;;5094731;28;20051;-76
2022/08/28 00:04:07;;;;;;;22.55;14.35;;;17.90;99.90;;;;;;5095775;28;20047;-76
2022/08/28 00:06:34;;;;;;;19.92;13.88;;;17.90;99.90;;;;;;5095979;28;20036;-75
2022/08/28 00:09:01;;;;;;;20.20;14.05;;;17.90;99.90;;;;;;5095616;28;20085;-76
2022/08/28 00:11:29;;;;;;;26.20;14.93;;;17.90;99.90;;;;;;5095189;28;20051;-77
2022/08/28 00:13:57;;;;;;;20.88;14.05;;;17.80;99.90;;;;;;5095376;28;20036;-76
2022/08/28 00:16:26;;;;;;;18.48;14.63;;;17.80;99.90;;;;;;5095673;28;20097;-76
2022/08/28 00:18:53;;;;;;;20.10;14.50;;;17.80;99.90;;;;;;5094316;28;20048;-76
2022/08/28 00:21:21;;;;;;;21.20;14.45;;;17.70;99.90;;;;;;5095472;28;20173;-76
2022/08/28 00:23:48;;;;;;;20.98;13.77;;;17.70;99.90;;;;;;5095580;28;20052;-76
2022/08/28 00:27:51;;;;;;;17.33;14.90;;;17.60;99.90;;;;;;5096604;28;20046;-75
2022/08/28 00:29:03;;;;;;;22.00;14.02;;;17.60;99.90;;;;;;5096282;28;20064;-77
2022/08/28 00:31:32;;;;;;;20.13;14.75;;;17.60;99.90;;;;;;5096184;28;20039;-76
2022/08/28 00:34:01;;;;;;;21.98;14.63;;;17.60;99.90;;;;;;5095834;28;20098;-76
2022/08/28 00:36:29;;;;;;;19.58;14.55;;;17.60;99.90;;;;;;5095140;28;20044;-76
2022/08/28 00:38:59;;;;;;;19.63;14.25;;;17.60;99.90;;;;;;5095081;28;20075;-75
2022/08/28 00:41:27;;;;;;;21.75;14.63;;;17.60;99.90;;;;;;5095272;28;20503;-76
2022/08/28 00:44:08;;;;;;;20.02;13.27;;;17.70;99.90;;;;;;5094908;28;20044;-74
2022/08/28 00:46:37;;;;;;;21.73;13.50;;;17.70;99.90;;;;;;5090938;28;20040;-76
2022/08/28 00:49:05;;;;;;;20.25;14.90;;;17.70;99.90;;;;;;5074505;28;20036;-77
2022/08/28 00:54:19;;;;;;;22.45;14.05;;;17.70;99.90;;;;;;5074634;28;20136;-75
2022/08/28 00:56:46;;;;;;;22.25;14.00;;;17.60;99.90;;;;;;5074727;28;20082;-74
2022/08/28 00:59:18;;;;;;;21.65;14.70;;;17.70;99.90;;;;;;5079447;28;20060;-76
2022/08/28 01:01:48;;;;;;;19.30;13.35;;;17.60;99.90;;;;;;5094720;28;20043;-76
2022/08/28 01:04:18;;;;;;;20.88;13.73;;;17.70;99.90;;;;;;5092732;28;20048;-75
2022/08/28 01:06:50;;;;;;;19.17;12.82;;;17.70;99.90;;;;;;5094793;28;20487;-75
2022/08/28 01:09:17;;;;;;;19.50;13.57;;;17.60;99.90;;;;;;5093197;28;20495;-75
2022/08/28 01:11:46;;;;;;;18.70;14.55;;;17.60;99.90;;;;;;5094776;28;20071;-76
2022/08/28 01:14:16;;;;;;;19.17;13.68;;;17.60;99.90;;;;;;5094243;28;20097;-75
2022/08/28 01:16:44;;;;;;;18.45;14.57;;;17.60;99.90;;;;;;5093724;28;20044;-75
2022/08/28 01:19:20;;;;;;;24.48;15.20;;;17.50;99.90;;;;;;5094168;28;20055;-77
2022/08/28 01:21:56;;;;;;;18.20;13.88;;;17.50;99.90;;;;;;5094691;28;20044;-76
2022/08/28 01:24:25;;;;;;;21.00;15.02;;;17.50;99.90;;;;;;5094181;28;20081;-75
2022/08/28 01:26:52;;;;;;;26.00;17.17;;;17.50;99.90;;;;;;5094234;28;20044;-76
2022/08/28 01:29:20;;;;;;;19.15;15.25;;;17.40;99.90;;;;;;5093088;28;20052;-75
2022/08/28 01:31:47;;;;;;;22.10;15.38;;;17.40;99.90;;;;;;5092322;28;20415;-75
2022/08/28 01:34:15;;;;;;;46.92;34.70;;;17.30;99.90;;;;;;5093990;28;20048;-75
2022/08/28 01:36:43;;;;;;;26.48;20.33;;;17.30;99.90;;;;;;5094266;28;20036;-76
2022/08/28 01:39:15;;;;;;;19.38;15.85;;;17.40;99.90;;;;;;5092512;28;20138;-76
2022/08/28 01:41:46;;;;;;;19.85;14.82;;;17.40;99.90;;;;;;5094225;28;20488;-75
2022/08/28 01:44:15;;;;;;;22.02;14.75;;;17.30;99.90;;;;;;5093256;28;20094;-76
2022/08/28 01:46:43;;;;;;;21.98;14.93;;;17.30;99.90;;;;;;5093180;28;20044;-75
2022/08/28 01:49:11;;;;;;;23.77;15.05;;;17.20;99.90;;;;;;5093733;28;20082;-76
2022/08/28 01:51:39;;;;;;;22.23;14.93;;;17.20;99.90;;;;;;5094007;28;20044;-76
2022/08/28 01:54:07;;;;;;;20.17;15.25;;;17.20;99.90;;;;;;5093382;28;20044;-76
2022/08/28 01:56:35;;;;;;;21.48;14.68;;;17.10;99.90;;;;;;5093834;28;20036;-76
2022/08/28 01:59:07;;;;;;;22.38;15.98;;;17.20;99.90;;;;;;5093377;28;20061;-74
2022/08/28 02:01:34;;;;;;;21.73;15.60;;;17.10;99.90;;;;;;5092585;28;20494;-76
2022/08/28 02:04:03;;;;;;;24.33;16.15;;;17.10;99.90;;;;;;5093831;28;20406;-75
2022/08/28 02:06:30;;;;;;;27.90;15.57;;;17.10;99.90;;;;;;5093460;28;20048;-76
2022/08/28 02:08:59;;;;;;;19.75;16.15;;;17.00;99.90;;;;;;5092236;28;20067;-76
2022/08/28 02:11:28;;;;;;;20.70;16.00;;;16.90;99.90;;;;;;5093472;28;20487;-76
2022/08/28 02:13:55;;;;;;;19.80;15.20;;;17.00;99.90;;;;;;5093166;28;20040;-76
2022/08/28 02:16:24;;;;;;;20.02;15.75;;;17.00;99.90;;;;;;5096732;28;20074;-76
2022/08/28 02:18:52;;;;;;;19.45;15.02;;;17.00;99.90;;;;;;5098009;28;20479;-75
2022/08/28 02:21:19;;;;;;;25.23;14.35;;;17.00;99.90;;;;;;5093529;28;20730;-76
2022/08/28 02:23:47;;;;;;;23.33;14.57;;;17.00;99.90;;;;;;5093456;28;20067;-76
2022/08/28 02:26:15;;;;;;;21.20;14.27;;;17.00;99.90;;;;;;5092218;28;20553;-75
2022/08/28 02:28:42;;;;;;;25.50;15.18;;;17.00;99.90;;;;;;5093053;28;20094;-74
2022/08/28 02:31:10;;;;;;;19.85;14.85;;;17.00;99.90;;;;;;5093831;28;20125;-76
2022/08/28 02:33:39;;;;;;;20.85;14.70;;;17.00;99.90;;;;;;5091672;28;20052;-77
2022/08/28 02:36:08;;;;;;;19.10;15.07;;;17.00;99.90;;;;;;5093475;28;20044;-76
2022/08/28 02:38:36;;;;;;;22.95;16.42;;;17.00;99.90;;;;;;5092618;28;20052;-76
2022/08/28 02:41:04;;;;;;;18.52;16.15;;;16.90;99.90;;;;;;5093207;28;20055;-76
2022/08/28 02:43:31;;;;;;;22.65;15.98;;;16.90;99.90;;;;;;5095095;28;20560;-75
2022/08/28 02:45:59;;;;;;;21.88;15.27;;;16.90;99.90;;;;;;5097043;28;20503;-75
2022/08/28 02:48:30;;;;;;;26.20;16.40;;;16.90;99.90;;;;;;5096214;28;20056;-75
2022/08/28 02:51:01;;;;;;;19.48;15.82;;;16.80;99.90;;;;;;5097648;28;20434;-75
2022/08/28 02:53:29;;;;;;;19.45;15.40;;;16.70;99.90;;;;;;5097262;28;20081;-75
2022/08/28 02:55:57;;;;;;;23.30;15.95;;;16.70;99.90;;;;;;5095843;28;20040;-76
2022/08/28 02:58:26;;;;;;;22.25;16.67;;;16.70;99.90;;;;;;5097180;28;20081;-76
2022/08/28 03:00:53;;;;;;;20.95;15.75;;;16.70;99.90;;;;;;5095837;28;20075;-76
2022/08/28 03:03:21;;;;;;;24.40;16.88;;;16.70;99.90;;;;;;5096724;28;20047;-76
2022/08/28 03:05:48;;;;;;;24.17;16.98;;;16.70;99.90;;;;;;5096751;28;20048;-76
2022/08/28 03:08:17;;;;;;;23.98;16.73;;;16.70;99.90;;;;;;5096806;28;20040;-76
2022/08/28 03:10:44;;;;;;;23.92;16.73;;;16.80;99.90;;;;;;5096390;28;20063;-77
2022/08/28 03:13:11;;;;;;;21.67;16.23;;;16.80;99.90;;;;;;5096173;28;20124;-77
2022/08/28 03:15:42;;;;;;;24.45;16.88;;;16.70;99.90;;;;;;5096523;28;20503;-77
2022/08/28 03:18:09;;;;;;;20.67;15.35;;;16.70;99.90;;;;;;5096263;28;20130;-76
2022/08/28 03:20:37;;;;;;;23.80;16.77;;;16.80;99.90;;;;;;5096703;28;20115;-77
2022/08/28 03:25:51;;;;;;;22.38;17.20;;;16.70;99.90;;;;;;5098781;28;20047;-75
2022/08/28 03:28:19;;;;;;;21.67;17.02;;;16.70;99.90;;;;;;5097704;28;20105;-75
2022/08/28 03:30:46;;;;;;;28.23;16.67;;;16.70;99.90;;;;;;5099141;28;20036;-76
2022/08/28 03:33:13;;;;;;;23.10;16.02;;;16.60;99.90;;;;;;5099468;28;20100;-76
2022/08/28 03:35:41;;;;;;;17.52;15.32;;;16.60;99.90;;;;;;5102099;28;20094;-76
2022/08/28 03:38:10;;;;;;;21.00;16.65;;;16.60;99.90;;;;;;5103284;28;20040;-76
2022/08/28 03:40:41;;;;;;;18.20;15.90;;;16.60;99.90;;;;;;5104143;28;20044;-75
2022/08/28 03:43:12;;;;;;;20.98;15.80;;;16.60;99.90;;;;;;5101787;28;20048;-76
2022/08/28 03:45:39;;;;;;;27.90;17.05;;;16.60;99.90;;;;;;5103753;28;20101;-76
2022/08/28 03:48:07;;;;;;;24.63;16.85;;;16.60;99.90;;;;;;5096277;28;20347;-77
2022/08/28 03:50:35;;;;;;;22.52;16.85;;;16.60;99.90;;;;;;5096038;28;20036;-76
2022/08/28 03:53:02;;;;;;;20.02;16.85;;;16.60;99.90;;;;;;5095457;28;20040;-77
2022/08/28 03:55:30;;;;;;;22.60;16.60;;;16.60;99.90;;;;;;5096485;28;20048;-77
2022/08/28 03:57:57;;;;;;;24.98;17.63;;;16.60;99.90;;;;;;5095949;28;20368;-76
2022/08/28 04:00:26;;;;;;;26.40;16.83;;;16.60;99.90;;;;;;5096176;28;20044;-76
2022/08/28 04:02:53;;;;;;;23.88;16.52;;;16.60;99.90;;;;;;5095790;28;20051;-75
2022/08/28 04:05:20;;;;;;;26.90;16.10;;;16.60;99.90;;;;;;5095592;28;20051;-77
2022/08/28 04:07:48;;;;;;;21.45;15.63;;;16.50;99.90;;;;;;5095459;28;20053;-76
2022/08/28 04:10:15;;;;;;;21.13;16.17;;;16.50;99.90;;;;;;5095602;28;20082;-76
2022/08/28 04:12:43;;;;;;;24.10;16.73;;;16.50;99.90;;;;;;5095502;28;20051;-77
2022/08/28 04:15:11;;;;;;;22.35;16.25;;;16.50;99.90;;;;;;5096156;28;20054;-76
2022/08/28 04:17:41;;;;;;;29.00;17.77;;;16.50;99.90;;;;;;5095972;28;20137;-77
2022/08/28 04:20:09;;;;;;;31.50;18.23;;;16.50;99.90;;;;;;5095317;28;20056;-76
2022/08/28 04:22:37;;;;;;;23.50;16.67;;;16.50;99.90;;;;;;5095651;28;20122;-77
2022/08/28 04:25:05;;;;;;;26.77;15.70;;;16.50;99.90;;;;;;5095388;28;20040;-76
2022/08/28 04:27:33;;;;;;;22.95;17.33;;;16.50;99.90;;;;;;5095215;28;20040;-76
2022/08/28 04:30:00;;;;;;;20.40;16.55;;;16.60;99.90;;;;;;5095753;28;20040;-76
2022/08/28 04:32:27;;;;;;;23.90;16.10;;;16.70;99.90;;;;;;5094350;28;20105;-76
2022/08/28 04:34:56;;;;;;;23.83;16.23;;;16.80;99.90;;;;;;5095397;28;20040;-75
2022/08/28 04:37:23;;;;;;;22.70;16.35;;;16.90;99.90;;;;;;5094233;28;20048;-76
2022/08/28 04:39:51;;;;;;;23.30;15.43;;;17.00;99.90;;;;;;5095118;28;20086;-76
2022/08/28 04:42:18;;;;;;;22.83;16.25;;;17.20;99.90;;;;;;5095789;28;20111;-76
2022/08/28 04:44:46;;;;;;;24.13;15.73;;;17.30;99.90;;;;;;5094656;28;20127;-76
2022/08/28 04:47:13;;;;;;;23.38;15.80;;;17.40;99.90;;;;;;5094748;28;20452;-77
2022/08/28 04:49:40;;;;;;;20.40;15.10;;;17.50;99.90;;;;;;5094946;28;20043;-76
2022/08/28 04:52:10;;;;;;;21.10;15.27;;;17.60;99.90;;;;;;5094767;28;20048;-76
2022/08/28 04:54:37;;;;;;;22.15;14.95;;;17.60;99.90;;;;;;5094541;28;20067;-76
2022/08/28 04:57:05;;;;;;;22.35;14.43;;;17.70;99.90;;;;;;5095096;28;20067;-77
2022/08/28 04:59:33;;;;;;;22.23;14.98;;;17.80;99.90;;;;;;5094911;28;20487;-76
2022/08/28 05:02:00;;;;;;;19.95;14.20;;;17.80;99.90;;;;;;5094786;28;20105;-76
2022/08/28 05:04:27;;;;;;;21.27;14.80;;;17.90;99.90;;;;;;5094133;28;20115;-77
2022/08/28 05:06:55;;;;;;;23.60;16.50;;;18.00;99.90;;;;;;5094290;28;20119;-75
2022/08/28 05:09:24;;;;;;;19.38;14.25;;;18.00;99.90;;;;;;5094246;28;20044;-77
2022/08/28 05:11:52;;;;;;;19.27;15.00;;;18.00;99.90;;;;;;5094618;28;20446;-76
2022/08/28 05:14:20;;;;;;;28.30;15.25;;;18.10;99.90;;;;;;5093972;28;20064;-76
2022/08/28 05:16:49;;;;;;;24.30;15.75;;;18.30;99.90;;;;;;5095317;28;20048;-76
2022/08/28 05:19:19;;;;;;;25.63;16.27;;;18.30;99.90;;;;;;5101803;28;20499;-76
2022/08/28 05:21:46;;;;;;;23.23;15.30;;;18.40;99.90;;;;;;5100357;28;20044;-76
2022/08/28 05:24:14;;;;;;;21.15;16.48;;;18.50;99.90;;;;;;5096466;28;20507;-75
2022/08/28 05:26:43;;;;;;;18.60;15.45;;;18.60;99.90;;;;;;5098287;28;20072;-77
2022/08/28 05:29:11;;;;;;;24.52;15.23;;;18.50;99.90;;;;;;5099357;28;20399;-76
2022/08/28 05:31:40;;;;;;;18.30;14.38;;;18.60;99.90;;;;;;5102549;28;20044;-76
2022/08/28 05:34:09;;;;;;;23.48;14.65;;;18.70;99.90;;;;;;5104275;28;20062;-77
2022/08/28 05:36:38;;;;;;;20.65;15.32;;;18.90;99.90;;;;;;5105175;28;20063;-77
2022/08/28 05:39:07;;;;;;;26.38;16.65;;;19.20;99.90;;;;;;5096976;28;20060;-77
2022/08/28 05:41:35;;;;;;;21.70;15.55;;;19.50;99.90;;;;;;5097763;28;20036;-77
2022/08/28 05:44:09;;;;;;;22.55;14.82;;;19.80;99.90;;;;;;5099591;28;20043;-76
2022/08/28 05:46:40;;;;;;;19.63;14.48;;;20.20;99.90;;;;;;5100400;28;20044;-77
2022/08/28 05:49:09;;;;;;;21.75;14.40;;;20.40;99.90;;;;;;5095188;28;20036;-76
2022/08/28 05:51:36;;;;;;;25.83;14.35;;;20.50;99.90;;;;;;5094429;28;20093;-77
2022/08/28 05:54:04;;;;;;;21.58;16.52;;;20.60;99.90;;;;;;5093889;28;20040;-76
2022/08/28 05:56:35;;;;;;;33.60;15.02;;;20.90;99.90;;;;;;5096333;28;20068;-76
2022/08/28 05:59:06;;;;;;;27.85;15.82;;;21.20;99.90;;;;;;5094520;28;20086;-76
2022/08/28 06:01:36;;;;;;;27.05;16.38;;;21.50;99.90;;;;;;5095380;28;20048;-75
2022/08/28 06:04:10;;;;;;;30.40;15.10;;;21.50;99.90;;;;;;5095637;28;20097;-75
2022/08/28 06:06:40;;;;;;;23.77;14.73;;;21.60;99.90;;;;;;5094511;28;20452;-76
2022/08/28 06:09:10;;;;;;;25.10;13.05;;;21.90;99.90;;;;;;5073304;28;20115;-76
2022/08/28 06:11:37;;;;;;;20.27;13.20;;;22.00;99.90;;;;;;5074167;28;20045;-76
2022/08/28 06:14:09;;;;;;;23.08;13.38;;;22.00;99.90;;;;;;5089243;28;20048;-77
2022/08/28 06:16:38;;;;;;;22.15;13.05;;;22.00;99.90;;;;;;5094321;28;20052;-76
2022/08/28 06:19:06;;;;;;;21.58;14.30;;;22.20;99.90;;;;;;5090821;28;20040;-76
2022/08/28 06:21:33;;;;;;;24.13;13.63;;;22.50;99.90;;;;;;5085989;28;20036;-77
2022/08/28 06:24:01;;;;;;;18.50;13.43;;;22.70;1.00;;;;;;5098135;28;20040;-76
2022/08/28 06:26:28;;;;;;;20.55;14.07;;;23.00;1.00;;;;;;5097837;28;20113;-76
2022/08/28 06:29:00;;;;;;;20.08;13.57;;;23.20;99.90;;;;;;5092762;28;20047;-77
2022/08/28 06:31:29;;;;;;;21.10;14.07;;;23.50;1.00;;;;;;5098010;28;20115;-77
2022/08/28 06:33:59;;;;;;;26.85;13.85;;;23.80;1.00;;;;;;5095981;28;20089;-77
2022/08/28 06:36:28;;;;;;;23.23;13.95;;;24.10;1.00;;;;;;5097817;28;20131;-77
2022/08/28 06:38:57;;;;;;;21.10;14.18;;;24.30;1.00;;;;;;5097084;28;20101;-76
2022/08/28 06:41:26;;;;;;;21.08;13.68;;;24.50;99.90;;;;;;5097430;28;20040;-73
2022/08/28 06:43:53;;;;;;;19.35;14.25;;;24.70;22.20;;;;;;5091805;28;20111;-76
2022/08/28 06:46:21;;;;;;;25.20;15.32;;;24.70;1.00;;;;;;5093319;28;20032;-76
2022/08/28 06:48:50;;;;;;;18.50;13.68;;;24.90;99.90;;;;;;5100590;28;20036;-75
2022/08/28 06:51:18;;;;;;;26.48;14.05;;;25.10;13.00;;;;;;5102275;28;20051;-76
2022/08/28 06:53:46;;;;;;;23.02;14.30;;;25.10;1.00;;;;;;5104414;28;20110;-76
2022/08/28 06:56:16;;;;;;;28.98;16.50;;;25.40;1.00;;;;;;5094963;28;20557;-76
2022/08/28 06:58:44;;;;;;;31.75;17.92;;;25.50;1.00;;;;;;5103052;28;20060;-76
2022/08/28 07:01:15;;;;;;;37.53;20.88;;;25.60;1.00;;;;;;5103788;28;20126;-77
2022/08/28 07:03:44;;;;;;;44.88;21.48;;;25.70;1.00;;;;;;5100390;28;20048;-77
2022/08/28 07:06:14;;;;;;;22.13;15.38;;;25.90;1.00;;;;;;5099008;28;20032;-76
2022/08/28 07:08:43;;;;;;;23.75;16.13;;;25.90;99.90;;;;;;5093107;28;20412;-77
2022/08/28 07:11:12;;;;;;;23.88;15.70;;;25.90;99.90;;;;;;5077711;28;20043;-77
2022/08/28 07:13:40;;;;;;;28.80;15.90;;;26.00;99.90;;;;;;5084705;28;20041;-76
2022/08/28 07:16:07;;;;;;;26.83;16.30;;;25.90;99.90;;;;;;5077456;28;20148;-77
2022/08/28 07:18:35;;;;;;;33.53;17.33;;;25.80;99.90;;;;;;5089439;28;20036;-77
2022/08/28 07:21:03;;;;;;;22.90;16.85;;;25.90;99.90;;;;;;5104341;28;20063;-78
2022/08/28 07:23:37;;;;;;;32.85;19.52;;;25.80;1.00;;;;;;5107243;28;20109;-77
2022/08/28 07:26:07;;;;;;;30.87;18.47;;;25.80;99.90;;;;;;5099362;28;20069;-75
2022/08/28 07:28:35;;;;;;;36.00;18.80;;;25.90;1.00;;;;;;5095357;28;20044;-77
2022/08/28 07:31:05;;;;;;;25.35;17.60;;;26.20;99.90;;;;;;5095943;28;20032;-76
2022/08/28 07:33:33;;;;;;;34.65;20.10;;;26.30;99.90;;;;;;5099709;28;20048;-76
2022/08/28 07:36:02;;;;;;;29.10;19.02;;;26.00;99.90;;;;;;5096644;28;20059;-77
2022/08/28 07:38:29;;;;;;;34.13;24.17;;;26.20;99.90;;;;;;5096232;28;20142;-77
2022/08/28 07:40:58;;;;;;;42.05;21.48;;;26.30;99.90;;;;;;5095629;28;20494;-77
2022/08/28 07:46:11;;;;;;;35.88;22.02;;;26.30;99.90;;;;;;5104755;28;20032;-77
2022/08/28 07:48:41;;;;;;;31.08;19.60;;;26.50;99.90;;;;;;5096779;28;20127;-77
2022/08/28 07:51:10;;;;;;;28.63;20.77;;;26.80;99.90;;;;;;5096805;28;20162;-77
2022/08/28 07:53:37;;;;;;;31.85;20.42;;;26.90;99.90;;;;;;5096579;28;20044;-77
2022/08/28 07:56:07;;;;;;;32.05;19.52;;;27.10;99.90;;;;;;5096887;28;20071;-76
2022/08/28 07:58:34;;;;;;;23.85;16.88;;;27.10;99.90;;;;;;5095809;28;20062;-75
2022/08/28 08:01:01;;;;;;;31.63;18.80;;;27.10;99.90;;;;;;5096507;28;20051;-77
2022/08/28 08:03:30;;;;;;;25.90;17.77;;;26.90;99.90;;;;;;5095750;28;20111;-77
2022/08/28 08:05:59;;;;;;;27.70;17.05;;;26.80;99.90;;;;;;5096209;28;20042;-75
2022/08/28 08:08:26;;;;;;;24.35;18.65;;;26.50;99.90;;;;;;5096451;28;20040;-76
2022/08/28 08:11:02;;;;;;;24.88;17.10;;;26.60;99.90;;;;;;5096459;28;20048;-77
2022/08/28 08:13:31;;;;;;;27.23;17.70;;;26.70;99.90;;;;;;5099275;28;20040;-77
2022/08/28 08:16:03;;;;;;;25.58;18.77;;;26.90;99.90;;;;;;5097637;28;20055;-77
2022/08/28 08:18:30;;;;;;;25.48;17.02;;;26.90;99.90;;;;;;5094710;28;20105;-77
2022/08/28 08:20:58;;;;;;;24.02;16.77;;;26.90;99.90;;;;;;5095785;28;20048;-76
2022/08/28 08:23:25;;;;;;;26.33;18.55;;;27.00;99.90;;;;;;5095418;28;20047;-77
2022/08/28 08:25:57;;;;;;;26.38;17.98;;;27.10;99.90;;;;;;5096064;28;20044;-75
2022/08/28 08:28:26;;;;;;;27.58;18.27;;;27.20;99.90;;;;;;5095520;28;20079;-76
2022/08/28 08:31:04;;;;;;;24.92;17.88;;;27.50;99.90;;;;;;5095378;28;20053;-77
2022/08/28 08:33:32;;;;;;;32.05;18.02;;;27.60;99.90;;;;;;5095512;28;20499;-77
2022/08/28 08:36:00;;;;;;;26.75;18.23;;;27.60;99.90;;;;;;5095725;28;20044;-76
2022/08/28 08:38:29;;;;;;;29.98;19.38;;;27.70;99.80;;;;;;5095193;28;20151;-77
2022/08/28 08:40:57;;;;;;;21.60;17.48;;;27.70;91.90;;;;;;5094077;28;20399;-76
2022/08/28 08:43:25;;;;;;;26.38;17.80;;;27.60;78.10;;;;;;5094853;28;20044;-76
2022/08/28 08:45:52;;;;;;;28.85;18.55;;;27.80;83.30;;;;;;5095236;28;20063;-76
2022/08/28 08:48:29;;;;;;;23.15;16.58;;;28.10;94.50;;;;;;5095107;28;20093;-76
2022/08/28 08:51:02;;;;;;;27.85;17.05;;;27.90;55.50;;;;;;5094802;28;20411;-77
2022/08/28 08:53:42;;;;;;;26.42;18.13;;;27.90;99.90;;;;;;5095221;28;20495;-77
2022/08/28 08:56:15;;;;;;;27.52;17.63;;;28.10;99.90;;;;;;5094960;28;20051;-76
2022/08/28 08:58:47;;;;;;;20.55;16.20;;;28.30;99.90;;;;;;5094901;28;20040;-77
2022/08/28 09:01:26;;;;;;;25.65;16.83;;;28.50;99.90;;;;;;5095921;28;20461;-78
2022/08/28 09:04:02;;;;;;;29.58;17.98;;;28.60;99.90;;;;;;5095146;28;20487;-77
2022/08/28 09:06:36;;;;;;;26.50;16.65;;;28.60;99.90;;;;;;5097051;28;20040;-77
2022/08/28 09:09:12;;;;;;;29.33;18.85;;;28.80;99.90;;;;;;5075399;28;20075;-78
2022/08/28 09:11:48;;;;;;;22.98;17.25;;;28.80;99.90;;;;;;5075635;28;20102;-77
2022/08/28 09:14:24;;;;;;;28.40;17.65;;;28.90;99.90;;;;;;5091959;28;20093;-78
2022/08/28 09:16:53;;;;;;;21.85;15.98;;;28.70;99.90;;;;;;5093598;28;20050;-76
2022/08/28 09:19:22;;;;;;;30.77;25.25;;;28.70;99.90;;;;;;5094703;28;20040;-77
2022/08/28 09:21:51;;;;;;;19.40;13.85;;;28.70;99.90;;;;;;5094823;28;20097;-77
2022/08/28 09:24:22;;;;;;;19.42;14.43;;;28.70;1.00;;;;;;5094670;28;20117;-76
2022/08/28 09:26:55;;;;;;;29.42;20.55;;;28.60;1.00;;;;;;5094523;28;20040;-77
2022/08/28 09:29:30;;;;;;;19.70;12.35;;;28.60;1.00;;;;;;5094488;28;20043;-77
2022/08/28 09:31:58;;;;;;;15.85;13.45;;;28.60;1.00;;;;;;5094682;28;20048;-77
2022/08/28 09:34:31;;;;;;;24.35;12.45;;;28.70;1.00;;;;;;5093970;28;20071;-76
2022/08/28 09:37:00;;;;;;;19.05;13.88;;;28.50;1.00;;;;;;5092921;28;20047;-76
2022/08/28 09:39:29;;;;;;;22.50;13.55;;;28.60;99.90;;;;;;5094063;28;20110;-75
2022/08/28 09:45:04;;;;;;;24.27;12.10;;;28.90;1.00;;;;;;5093637;28;20040;-76
2022/08/28 09:47:49;;;;;;;27.45;20.33;;;29.10;1.00;;;;;;5093863;28;20068;-76
2022/08/28 09:50:23;;;;;;;25.25;12.85;;;29.10;1.00;;;;;;5093525;28;20036;-75
2022/08/28 09:52:52;;;;;;;19.85;13.32;;;29.20;1.00;;;;;;5093288;28;20051;-76
2022/08/28 09:55:25;;;;;;;19.48;12.50;;;29.10;1.00;;;;;;5093046;28;20039;-76
2022/08/28 09:57:54;;;;;;;19.55;10.95;;;29.10;1.00;;;;;;5093415;28;20044;-76
2022/08/28 10:00:22;;;;;;;16.48;12.48;;;29.20;1.00;;;;;;5093251;28;20067;-76
2022/08/28 10:02:58;;;;;;;15.68;12.10;;;29.30;1.00;;;;;;5093301;28;20108;-75
2022/08/28 10:05:38;;;;;;;18.40;12.30;;;29.20;1.00;;;;;;5093870;28;20048;-75
2022/08/28 10:08:19;;;;;;;19.60;11.32;;;29.20;1.00;;;;;;5093499;28;20074;-75
2022/08/28 10:10:53;;;;;;;16.58;14.07;;;29.30;1.00;;;;;;5093388;28;20407;-76
2022/08/28 10:13:23;;;;;;;23.95;15.13;;;29.30;1.00;;;;;;5093262;28;20036;-75
2022/08/28 10:16:16;;;;;;;23.58;14.05;;;29.30;95.70;;;;;;5093610;28;20143;-75
2022/08/28 10:18:51;;;;;;;17.42;11.90;;;29.30;1.00;;;;;;5093702;28;20082;-75
2022/08/28 10:21:26;;;;;;;18.88;11.60;;;29.40;1.00;;;;;;5094694;28;20066;-75
2022/08/28 10:24:10;;;;;;;17.30;12.95;;;29.50;1.00;;;;;;5092403;28;20079;-76
2022/08/28 10:26:47;;;;;;;23.05;13.05;;;29.60;1.00;;;;;;5093655;28;20044;-75
2022/08/28 10:29:30;;;;;;;20.20;12.60;;;29.50;1.00;;;;;;5094328;28;20040;-75
2022/08/28 10:32:12;;;;;;;27.33;13.27;;;29.40;1.00;;;;;;5094783;28;20101;-76
2022/08/28 10:34:53;;;;;;;21.02;12.98;;;29.40;99.90;;;;;;5094056;28;20480;-75
2022/08/28 10:37:33;;;;;;;22.83;14.25;;;29.50;99.90;;;;;;5093948;28;20046;-75
2022/08/28 10:40:05;;;;;;;21.20;14.45;;;29.60;1.00;;;;;;5093626;28;20052;-76
2022/08/28 10:42:38;;;;;;;22.73;13.75;;;29.80;1.00;;;;;;5092562;28;20127;-76
2022/08/28 10:45:10;;;;;;;25.15;14.45;;;29.60;1.00;;;;;;5093397;28;20111;-76
2022/08/28 10:47:41;;;;;;;29.58;14.20;;;29.50;1.00;;;;;;5093312;28;20140;-75
2022/08/28 10:50:15;;;;;;;25.33;15.43;;;29.40;1.00;;;;;;5093514;28;20128;-76
2022/08/28 10:52:48;;;;;;;24.65;15.15;;;29.50;1.00;;;;;;5093210;28;20093;-76
2022/08/28 10:55:21;;;;;;;26.77;14.80;;;29.70;1.00;;;;;;5093023;28;20047;-76
2022/08/28 10:57:56;;;;;;;26.55;14.80;;;29.90;1.00;;;;;;5091639;28;20052;-76
2022/08/28 11:00:25;;;;;;;21.00;15.13;;;30.10;1.00;;;;;;5093405;28;20106;-76
2022/08/28 11:02:56;;;;;;;23.30;14.15;;;30.20;1.00;;;;;;5092771;28;20043;-75
2022/08/28 11:05:28;;;;;;;20.02;13.57;;;30.30;1.00;;;;;;5100595;28;20036;-76
2022/08/28 11:08:00;;;;;;;20.10;13.63;;;30.10;99.90;;;;;;5097411;28;20423;-76
2022/08/28 11:10:48;;;;;;;26.75;14.32;;;30.00;99.90;;;;;;5096654;28;20079;-75
2022/08/28 11:13:40;;;;;;;27.48;15.38;;;30.10;1.00;;;;;;5096423;28;20044;-76
2022/08/28 11:16:16;;;;;;;25.23;14.23;;;30.20;1.00;;;;;;5096429;28;20044;-76
2022/08/28 11:19:01;;;;;;;25.70;15.82;;;30.30;94.70;;;;;;5096442;28;20043;-75
2022/08/28 11:21:33;;;;;;;23.17;13.15;;;30.40;1.00;;;;;;5096301;28;20038;-75
2022/08/28 11:24:08;;;;;;;22.48;13.82;;;30.40;1.00;;;;;;5095931;28;20047;-75
2022/08/28 11:26:45;;;;;;;27.98;16.10;;;30.30;1.00;;;;;;5096546;28;20482;-76
2022/08/28 11:29:51;;;;;;;30.70;21.80;;;30.30;1.00;;;;;;5095550;28;20069;-76
2022/08/28 11:32:39;;;;;;;22.40;16.67;;;30.20;1.00;;;;;;5096146;28;20043;-75
2022/08/28 11:35:36;;;;;;;24.40;16.77;;;30.20;1.00;;;;;;5096012;28;20527;-75
2022/08/28 11:38:04;;;;;;;22.30;13.27;;;30.20;1.00;;;;;;5096003;28;20067;-76
2022/08/28 11:40:55;;;;;;;23.95;14.57;;;30.30;1.00;;;;;;5096137;28;20047;-75
2022/08/28 11:43:35;;;;;;;22.05;12.93;;;30.50;1.00;;;;;;5092200;28;20056;-76
2022/08/28 11:46:12;;;;;;;20.83;13.15;;;30.40;4.60;;;;;;5096798;28;20032;-76
2022/08/28 11:48:51;;;;;;;18.17;11.57;;;30.50;99.90;;;;;;5096763;28;20051;-75
2022/08/28 11:51:43;;;;;;;17.85;11.50;;;30.60;99.90;;;;;;5096322;28;20081;-75
2022/08/28 11:54:24;;;;;;;16.75;11.85;;;30.70;44.60;;;;;;5096287;28;20044;-77
2022/08/28 11:57:06;;;;;;;20.60;11.60;;;30.70;1.00;;;;;;5097093;28;20036;-76
2022/08/28 12:00:00;;;;;;;20.45;12.52;;;30.70;99.90;;;;;;5096817;28;20068;-76
2022/08/28 12:03:01;;;;;;;19.23;13.85;;;30.70;66.70;;;;;;5098636;28;20078;-76
2022/08/28 12:05:50;;;;;;;19.73;12.52;;;30.60;1.00;;;;;;5096371;28;20056;-75
2022/08/28 12:08:54;;;;;;;23.42;13.85;;;30.70;99.90;;;;;;5095142;28;20097;-75
2022/08/28 12:11:54;;;;;;;20.63;13.93;;;30.80;99.90;;;;;;5095943;28;20402;-75
2022/08/28 12:15:01;;;;;;;23.65;14.82;;;30.90;99.90;;;;;;5092665;28;20040;-76
2022/08/28 12:17:46;;;;;;;20.65;13.55;;;31.00;1.00;;;;;;5084975;28;20056;-76
2022/08/28 12:20:29;;;;;;;19.10;13.25;;;31.00;18.30;;;;;;5086537;28;20044;-76
2022/08/28 12:22:59;;;;;;;22.73;14.18;;;31.00;97.90;;;;;;5085832;28;20121;-76
2022/08/28 12:25:31;;;;;;;23.98;13.68;;;31.00;1.00;;;;;;5091160;28;20075;-76
2022/08/28 12:28:04;;;;;;;18.42;13.45;;;31.00;1.00;;;;;;5087005;28;20063;-76
2022/08/28 12:30:37;;;;;;;18.40;11.52;;;31.10;1.00;;;;;;5091767;28;20043;-75
2022/08/28 12:33:14;;;;;;;18.77;12.82;;;31.00;99.90;;;;;;5089662;28;20564;-77
2022/08/28 12:35:42;;;;;;;18.85;12.10;;;30.80;99.90;;;;;;5094678;28;20048;-75
2022/08/28 12:38:17;;;;;;;19.38;11.20;;;30.70;1.00;;;;;;5094349;28;20495;-75
2022/08/28 12:40:53;;;;;;;;;;;30.50;1.00;;;;;;5094693;28;20036;-74
2022/08/28 12:43:32;;;;;;;20.00;12.57;;;30.40;1.00;;;;;;5087943;28;19963;-74
2022/08/28 12:46:02;;;;;;;20.65;12.90;;;30.30;99.90;;;;;;5089253;28;20054;-75
2022/08/28 12:48:32;;;;;;;23.25;12.70;;;30.30;22.00;;;;;;5091246;28;20048;-75
2022/08/28 12:51:04;;;;;;;16.50;11.82;;;30.50;99.90;;;;;;5085691;28;20040;-75
2022/08/28 12:53:40;;;;;;;18.13;11.30;;;30.50;99.90;;;;;;5095010;28;20559;-75
2022/08/28 12:56:09;;;;;;;15.25;11.50;;;30.40;1.00;;;;;;5095000;28;20558;-75
2022/08/28 12:58:39;;;;;;;18.77;11.50;;;30.20;99.90;;;;;;5094610;28;20040;-76
2022/08/28 13:01:10;;;;;;;13.93;11.50;;;30.20;99.90;;;;;;5092409;28;20040;-75
2022/08/28 13:03:51;;;;;;;18.80;12.50;;;30.30;1.00;;;;;;5085415;28;20048;-74